Time,TemperatureF,DewpointF,PressureIn,WindDirection,WindDirectionDegrees,WindSpeedMPH,WindSpeedGustMPH,Humidity,HourlyPrecipIn,Conditions,Clouds,dailyrainin,SoftwareType,DateUTC
2013-04-04 00:08:00,57.0,48.1,30.02,NW,315,0.0,0.0,72,0.00,,,-99.99,Weather View 32 v60,2013-04-04 07:08:00,
2013-04-04 00:19:00,57.0,48.4,30.02,East,85,0.0,0.0,73,0.00,,,-99.99,Weather View 32 v60,2013-04-04 07:19:00,
2013-04-04 00:29:00,57.2,48.6,30.02,ENE,74,0.0,0.0,73,0.00,,,-99.99,Weather View 32 v60,2013-04-04 07:29:00,
2013-04-04 00:39:00,57.0,48.4,30.02,ENE,74,0.0,0.0,73,0.00,,,-99.99,Weather View 32 v60,2013-04-04 07:39:00,
2013-04-04 00:49:00,57.0,48.4,30.02,ENE,74,0.0,0.0,73,0.00,,,-99.99,Weather View 32 v60,2013-04-04 07:49:00,
2013-04-04 00:59:00,56.8,48.3,30.02,NNW,343,0.0,0.0,73,0.00,,,-99.99,Weather View 32 v60,2013-04-04 07:59:00,
2013-04-04 01:09:00,56.8,48.3,30.02,NNW,343,0.0,0.0,73,0.00,,,-99.99,Weather View 32 v60,2013-04-04 08:09:00,
2013-04-04 01:19:00,56.7,48.1,30.02,NNW,346,0.0,0.0,73,0.00,,,-99.99,Weather View 32 v60,2013-04-04 08:19:00,
2013-04-04 01:29:00,56.7,48.4,30.02,West,278,0.0,0.0,74,0.00,,,-99.99,Weather View 32 v60,2013-04-04 08:29:00,
2013-04-04 01:39:00,56.5,48.3,30.02,SSW,200,0.0,0.0,74,0.00,,,-99.99,Weather View 32 v60,2013-04-04 08:39:00,
2013-04-04 01:49:00,56.3,48.5,30.02,West,266,0.0,0.0,75,0.00,,,-99.99,Weather View 32 v60,2013-04-04 08:49:00,
2013-04-04 01:59:00,56.1,48.6,30.02,SW,219,0.0,0.0,76,0.00,,,-99.99,Weather View 32 v60,2013-04-04 08:59:00,
2013-04-04 02:09:00,56.1,48.6,30.02,SW,219,0.0,0.0,76,0.00,,,-99.99,Weather View 32 v60,2013-04-04 09:09:00,
2013-04-04 02:19:00,55.9,48.5,30.02,WSW,249,0.0,0.0,76,0.00,,,-99.99,Weather View 32 v60,2013-04-04 09:19:00,
2013-04-04 02:29:00,56.1,48.6,30.02,WSW,249,0.0,0.0,76,0.00,,,-99.99,Weather View 32 v60,2013-04-04 09:29:00,
2013-04-04 02:39:00,56.3,49.2,30.02,East,84,0.0,0.0,77,0.00,,,-99.99,Weather View 32 v60,2013-04-04 09:39:00,
2013-04-04 02:49:00,56.1,49.0,30.02,NNE,12,0.0,0.0,77,0.00,,,-99.99,Weather View 32 v60,2013-04-04 09:49:00,
2013-04-04 02:59:00,56.8,45.2,30.02,SSE,160,0.0,3.0,65,0.00,,,-99.99,Weather View 32 v60,2013-04-04 09:59:00,
2013-04-04 03:10:00,57.6,44.2,30.02,South,184,0.0,3.0,61,0.00,,,-99.99,Weather View 32 v60,2013-04-04 10:10:00,
2013-04-04 03:19:00,57.0,46.5,30.02,SE,129,0.0,3.0,68,0.00,,,-99.99,Weather View 32 v60,2013-04-04 10:19:00,
2013-04-04 03:29:00,56.3,47.0,30.02,SW,223,0.0,3.0,71,0.00,,,-99.99,Weather View 32 v60,2013-04-04 10:29:00,
2013-04-04 03:39:00,55.8,46.1,29.99,WNW,299,0.0,3.0,70,0.00,,,-99.99,Weather View 32 v60,2013-04-04 10:39:00,
2013-04-04 03:49:00,55.2,46.7,30.02,ENE,71,0.0,3.0,73,0.04,,,-99.99,Weather View 32 v60,2013-04-04 10:49:00,
2013-04-04 03:59:00,55.0,47.9,30.02,NNW,337,0.0,0.0,77,0.04,,,-99.99,Weather View 32 v60,2013-04-04 10:59:00,
2013-04-04 04:09:00,54.9,48.1,30.02,NNW,338,0.0,0.0,78,0.04,,,-99.99,Weather View 32 v60,2013-04-04 11:09:00,
2013-04-04 04:19:00,54.5,48.4,30.02,South,173,0.0,7.0,80,0.04,,,-99.99,Weather View 32 v60,2013-04-04 11:19:00,
2013-04-04 04:29:00,54.3,48.6,30.02,SW,223,0.0,7.0,81,0.04,,,-99.99,Weather View 32 v60,2013-04-04 11:29:00,
2013-04-04 04:39:00,54.0,48.6,30.02,West,259,0.0,7.0,82,0.04,,,-99.99,Weather View 32 v60,2013-04-04 11:39:00,
2013-04-04 04:49:00,54.1,49.1,30.05,SE,141,0.0,7.0,83,0.04,,,-99.99,Weather View 32 v60,2013-04-04 11:49:00,
2013-04-04 04:59:00,54.3,49.3,30.05,ESE,105,0.0,7.0,83,0.04,,,-99.99,Weather View 32 v60,2013-04-04 11:59:00,
2013-04-04 05:09:00,54.3,49.9,30.05,SE,125,0.0,7.0,85,0.04,,,-99.99,Weather View 32 v60,2013-04-04 12:09:00,
2013-04-04 05:19:00,54.1,50.7,30.02,ESE,119,0.0,5.0,88,0.08,,,-99.99,Weather View 32 v60,2013-04-04 12:19:00,
2013-04-04 05:29:00,53.8,50.3,30.02,ESE,116,0.0,5.0,88,0.08,,,-99.99,Weather View 32 v60,2013-04-04 12:29:00,
2013-04-04 05:39:00,53.8,50.6,30.02,SE,129,0.0,4.0,89,0.08,,,-99.99,Weather View 32 v60,2013-04-04 12:39:00,
2013-04-04 05:49:00,53.8,50.9,30.02,SE,139,0.0,0.0,90,0.04,,,-99.99,Weather View 32 v60,2013-04-04 12:49:00,
2013-04-04 06:00:00,53.4,50.6,30.02,SSE,152,0.0,0.0,90,0.04,,,-99.99,Weather View 32 v60,2013-04-04 13:00:00,
2013-04-04 06:09:00,53.4,50.6,30.02,ESE,113,0.0,0.0,90,0.04,,,-99.99,Weather View 32 v60,2013-04-04 13:09:00,
2013-04-04 06:19:00,53.2,50.4,30.02,ESE,113,0.0,4.0,90,0.00,,,-99.99,Weather View 32 v60,2013-04-04 13:19:00,
2013-04-04 06:29:00,53.1,49.9,30.02,ESE,115,0.0,4.0,89,0.00,,,-99.99,Weather View 32 v60,2013-04-04 13:29:00,
2013-04-04 06:39:00,53.2,50.1,30.02,NE,49,0.0,4.0,89,0.00,,,-99.99,Weather View 32 v60,2013-04-04 13:39:00,
2013-04-04 06:49:00,53.2,50.1,30.02,ESE,117,0.0,4.0,89,0.00,,,-99.99,Weather View 32 v60,2013-04-04 13:49:00,
2013-04-04 06:59:00,53.4,50.6,30.02,East,98,0.0,4.0,90,0.00,,,-99.99,Weather View 32 v60,2013-04-04 13:59:00,
2013-04-04 07:09:00,53.6,50.7,30.02,SE,129,0.0,4.0,90,0.00,,,-99.99,Weather View 32 v60,2013-04-04 14:09:00,
2013-04-04 07:19:00,53.6,50.7,30.05,NE,53,0.0,0.0,90,0.00,,,-99.99,Weather View 32 v60,2013-04-04 14:19:00,
2013-04-04 07:29:00,53.8,51.5,30.05,NE,53,0.0,0.0,92,0.00,,,-99.99,Weather View 32 v60,2013-04-04 14:29:00,
2013-04-04 07:39:00,54.3,52.0,30.05,East,79,0.0,0.0,92,0.00,,,-99.99,Weather View 32 v60,2013-04-04 14:39:00,
2013-04-04 07:49:00,55.0,52.8,30.05,NE,54,0.0,0.0,92,0.00,,,-99.99,Weather View 32 v60,2013-04-04 14:49:00,
2013-04-04 08:09:00,56.1,53.2,30.05,ENE,62,0.0,0.0,90,0.00,,,-99.99,Weather View 32 v60,2013-04-04 15:09:00,
2013-04-04 08:19:00,56.3,52.8,30.08,ENE,58,0.0,0.0,88,0.00,,,-99.99,Weather View 32 v60,2013-04-04 15:19:00,
2013-04-04 08:29:00,56.5,52.6,30.08,East,85,0.0,0.0,87,0.04,,,-99.99,Weather View 32 v60,2013-04-04 15:29:00,
2013-04-04 08:39:00,55.9,52.1,30.08,ENE,66,0.0,0.0,87,0.04,,,-99.99,Weather View 32 v60,2013-04-04 15:39:00,
2013-04-04 08:49:00,56.1,52.6,30.08,NE,35,0.0,0.0,88,0.04,,,-99.99,Weather View 32 v60,2013-04-04 15:49:00,
2013-04-04 08:59:00,56.5,53.0,30.08,NNW,331,0.0,0.0,88,0.04,,,-99.99,Weather View 32 v60,2013-04-04 15:59:00,
2013-04-04 09:09:00,56.8,53.3,30.08,NE,39,0.0,0.0,88,0.04,,,-99.99,Weather View 32 v60,2013-04-04 16:09:00,
2013-04-04 09:19:00,57.2,53.7,30.08,NNE,33,0.0,0.0,88,0.04,,,-99.99,Weather View 32 v60,2013-04-04 16:19:00,
2013-04-04 09:29:00,57.4,53.5,30.08,North,11,0.0,0.0,87,0.00,,,-99.99,Weather View 32 v60,2013-04-04 16:29:00,
2013-04-04 09:39:00,57.0,52.9,30.08,NNE,22,0.0,0.0,86,0.00,,,-99.99,Weather View 32 v60,2013-04-04 16:39:00,
2013-04-04 09:49:00,57.6,54.0,30.08,North,9,0.0,0.0,88,0.00,,,-99.99,Weather View 32 v60,2013-04-04 16:49:00,
2013-04-04 09:59:00,57.9,54.1,30.08,NE,44,0.0,0.0,87,0.00,,,-99.99,Weather View 32 v60,2013-04-04 16:59:00,
2013-04-04 10:09:00,58.5,54.6,30.11,North,8,0.0,0.0,87,0.00,,,-99.99,Weather View 32 v60,2013-04-04 17:09:00,
2013-04-04 10:19:00,58.6,54.1,30.11,East,87,0.0,0.0,85,0.00,,,-99.99,Weather View 32 v60,2013-04-04 17:19:00,
2013-04-04 10:29:00,59.0,54.2,30.11,ENE,57,0.0,0.0,84,0.00,,,-99.99,Weather View 32 v60,2013-04-04 17:29:00,
2013-04-04 10:39:00,59.7,54.5,30.11,NE,39,0.0,0.0,83,0.00,,,-99.99,Weather View 32 v60,2013-04-04 17:39:00,
2013-04-04 10:59:00,61.2,54.6,30.11,NNW,347,0.0,0.0,79,0.00,,,-99.99,Weather View 32 v60,2013-04-04 17:59:00,
2013-04-04 11:09:00,62.2,55.6,30.11,West,264,0.0,3.0,79,0.00,,,-99.99,Weather View 32 v60,2013-04-04 18:09:00,
2013-04-04 11:19:00,62.6,53.8,30.11,SW,215,0.0,4.0,73,0.00,,,-99.99,Weather View 32 v60,2013-04-04 18:19:00,
2013-04-04 11:30:00,63.5,54.3,30.11,SW,228,0.0,7.0,72,0.00,,,-99.99,Weather View 32 v60,2013-04-04 18:30:00,
2013-04-04 11:39:00,63.9,53.9,30.11,SSW,199,0.0,7.0,70,0.00,,,-99.99,Weather View 32 v60,2013-04-04 18:39:00,
2013-04-04 11:49:00,64.4,54.4,30.11,West,270,0.0,7.0,70,0.00,,,-99.99,Weather View 32 v60,2013-04-04 18:49:00,
2013-04-04 11:59:00,65.5,53.8,30.11,West,259,0.0,7.0,66,0.00,,,-99.99,Weather View 32 v60,2013-04-04 18:59:00,
2013-04-04 12:09:00,66.2,53.2,30.11,West,264,3.0,7.0,63,0.00,,,-99.99,Weather View 32 v60,2013-04-04 19:09:00,
2013-04-04 12:15:00,66.2,53.2,30.11,West,264,3.0,7.0,63,0.00,,,-99.99,Weather View 32 v60,2013-04-04 19:15:00,
2013-04-04 12:29:00,69.1,53.2,30.11,ESE,118,0.0,7.0,57,0.00,,,-99.99,Weather View 32 v60,2013-04-04 19:29:00,
2013-04-04 12:39:00,71.1,50.9,30.11,SE,131,0.0,7.0,49,0.00,,,-99.99,Weather View 32 v60,2013-04-04 19:39:00,
2013-04-04 12:50:00,71.1,50.3,30.11,SSW,205,8.0,12.0,48,0.00,,,-99.99,Weather View 32 v60,2013-04-04 19:50:00,
2013-04-04 12:59:00,70.5,49.8,30.11,West,273,0.0,12.0,48,0.00,,,-99.99,Weather View 32 v60,2013-04-04 19:59:00,
2013-04-04 13:10:00,71.4,48.9,30.11,SSW,208,0.0,12.0,45,0.00,,,-99.99,Weather View 32 v60,2013-04-04 20:10:00,
2013-04-04 13:15:00,71.4,48.9,30.11,SSW,208,0.0,12.0,45,0.00,,,-99.99,Weather View 32 v60,2013-04-04 20:15:00,
2013-04-04 13:30:00,73.4,49.5,30.08,SE,132,0.0,12.0,43,0.00,,,-99.99,Weather View 32 v60,2013-04-04 20:30:00,
2013-04-04 13:39:00,72.3,47.9,30.08,SW,217,0.0,12.0,42,0.00,,,-99.99,Weather View 32 v60,2013-04-04 20:39:00,
2013-04-04 13:50:00,72.1,49.0,30.08,SSW,196,0.0,9.0,44,0.00,,,-99.99,Weather View 32 v60,2013-04-04 20:50:00,
2013-04-04 14:09:00,72.3,49.1,30.08,West,263,0.0,9.0,44,0.00,,,-99.99,Weather View 32 v60,2013-04-04 21:09:00,
2013-04-04 14:19:00,72.5,49.3,30.08,South,185,5.0,8.0,44,0.00,,,-99.99,Weather View 32 v60,2013-04-04 21:19:00,
2013-04-04 14:29:00,72.0,48.2,30.08,SSW,207,0.0,8.0,43,0.00,,,-99.99,Weather View 32 v60,2013-04-04 21:29:00,
2013-04-04 14:39:00,71.4,48.3,30.08,WSW,244,0.0,8.0,44,0.00,,,-99.99,Weather View 32 v60,2013-04-04 21:39:00,
2013-04-04 14:49:00,71.4,48.9,30.08,West,266,0.0,8.0,45,0.00,,,-99.99,Weather View 32 v60,2013-04-04 21:49:00,
2013-04-04 15:17:00,71.4,48.9,30.08,West,266,0.0,8.0,45,0.00,,,-99.99,Weather View 32 v60,2013-04-04 22:17:00,
2013-04-04 15:29:00,69.4,48.3,30.08,SSW,203,0.0,8.0,47,0.00,,,-99.99,Weather View 32 v60,2013-04-04 22:29:00,
2013-04-04 16:30:00,69.4,48.3,30.08,SSW,203,0.0,8.0,47,0.00,,,-99.99,Weather View 32 v60,2013-04-04 23:30:00,
2013-04-04 23:29:00,58.1,51.9,30.11,WSW,251,0.0,0.0,80,0.00,,,-99.99,Weather View 32 v60,2013-04-05 06:29:00,
2013-04-04 23:39:00,58.1,51.9,30.14,West,262,0.0,0.0,80,0.00,,,-99.99,Weather View 32 v60,2013-04-05 06:39:00,
2013-04-04 23:49:00,57.9,51.8,30.14,NW,314,0.0,0.0,80,0.00,,,-99.99,Weather View 32 v60,2013-04-05 06:49:00,
2013-04-04 23:59:00,57.9,51.8,30.14,West,263,0.0,0.0,80,0.00,,,-99.99,Weather View 32 v60,2013-04-05 06:59:00,